createdAt,value
2022-08-22T00:00:13.723Z,17.87
2022-08-22T00:02:47.770Z,20.61
2022-08-22T00:03:16.175Z,17.91
2022-08-22T00:03:16.195Z,19.08
2022-08-22T00:05:48.176Z,17.97
2022-08-22T00:08:26.299Z,17.86
2022-08-22T00:11:02.830Z,17.79
2022-08-22T00:13:38.000Z,17.82
2022-08-22T00:16:14.208Z,17.69
2022-08-22T00:18:49.642Z,17.65
2022-08-22T00:21:23.045Z,17.72
2022-08-22T00:23:56.308Z,17.65
2022-08-22T00:26:34.987Z,17.72
2022-08-22T00:29:06.547Z,17.69
2022-08-22T00:31:37.595Z,17.72
2022-08-22T00:34:10.284Z,17.75
2022-08-22T00:36:43.320Z,17.74
2022-08-22T00:39:26.564Z,17.68
2022-08-22T00:42:15.073Z,17.65
2022-08-22T00:45:32.338Z,17.54
2022-08-22T00:48:24.266Z,17.32
2022-08-22T00:51:24.798Z,17.39
2022-08-22T00:53:57.237Z,17.31
2022-08-22T00:56:51.521Z,17.35
2022-08-22T00:59:48.724Z,17.29
2022-08-22T01:02:31.765Z,17.23
2022-08-22T01:05:23.514Z,17.09
2022-08-22T01:08:05.958Z,16.98
2022-08-22T01:10:46.012Z,16.99
2022-08-22T01:13:36.572Z,16.91
2022-08-22T01:16:22.092Z,16.93
2022-08-22T01:19:28.087Z,16.92
2022-08-22T01:22:42.780Z,16.91
2022-08-22T01:26:14.851Z,16.91
2022-08-22T01:29:18.567Z,16.71
2022-08-22T01:32:44.622Z,16.72
2022-08-22T01:35:51.254Z,16.63
2022-08-22T01:38:36.576Z,16.54
2022-08-22T01:41:21.020Z,16.60
2022-08-22T01:44:05.085Z,16.58
2022-08-22T01:46:42.755Z,16.52
2022-08-22T01:49:18.896Z,16.45
2022-08-22T01:51:54.666Z,16.46
2022-08-22T01:54:32.241Z,16.39
2022-08-22T01:57:03.210Z,16.25
2022-08-22T01:59:42.364Z,16.32
2022-08-22T02:02:26.256Z,16.43
2022-08-22T02:04:59.134Z,16.43
2022-08-22T02:07:35.871Z,16.42
2022-08-22T02:10:13.807Z,16.38
2022-08-22T02:12:46.849Z,16.32
2022-08-22T02:15:22.750Z,16.26
2022-08-22T02:18:18.885Z,16.21
2022-08-22T02:21:00.248Z,16.08
2022-08-22T02:23:37.907Z,16.14
2022-08-22T02:26:10.615Z,16.10
2022-08-22T02:28:56.616Z,16.11
2022-08-22T02:31:36.896Z,16.09
2022-08-22T02:34:21.275Z,16.10
2022-08-22T02:36:55.045Z,15.82
2022-08-22T02:39:34.578Z,15.95
2022-08-22T02:42:15.842Z,15.97
2022-08-22T02:44:53.551Z,16.03
2022-08-22T02:47:32.879Z,16.02
2022-08-22T02:50:12.812Z,15.91
2022-08-22T02:52:54.034Z,15.80
2022-08-22T02:55:36.059Z,15.65
2022-08-22T02:58:12.185Z,15.65
2022-08-22T03:00:48.263Z,15.67
2022-08-22T03:03:20.600Z,15.70
2022-08-22T03:06:01.409Z,15.66
2022-08-22T03:08:32.183Z,15.59
2022-08-22T03:11:12.082Z,15.64
2022-08-22T03:13:53.431Z,15.65
2022-08-22T03:16:27.247Z,15.73
2022-08-22T03:19:00.696Z,15.56
2022-08-22T03:21:34.729Z,15.45
2022-08-22T03:24:11.467Z,15.55
2022-08-22T03:26:49.282Z,15.62
2022-08-22T03:29:21.498Z,15.52
2022-08-22T03:32:10.387Z,15.60
2022-08-22T03:34:39.443Z,15.57
2022-08-22T03:37:16.586Z,15.59
2022-08-22T03:39:55.774Z,15.54
2022-08-22T03:43:04.534Z,15.67
2022-08-22T03:46:05.056Z,15.56
2022-08-22T03:48:56.092Z,15.35
2022-08-22T03:51:33.759Z,15.34
2022-08-22T03:54:30.653Z,15.35
2022-08-22T03:57:23.206Z,15.47
2022-08-22T04:00:10.519Z,15.20
2022-08-22T04:03:13.284Z,15.18
2022-08-22T04:06:12.751Z,15.01
2022-08-22T04:08:58.839Z,15.23
2022-08-22T04:11:49.787Z,15.26
2022-08-22T04:14:57.934Z,15.31
2022-08-22T04:17:55.548Z,15.53
2022-08-22T04:20:45.809Z,15.45
2022-08-22T04:23:36.550Z,15.40
2022-08-22T04:26:12.937Z,15.45
2022-08-22T04:28:46.390Z,15.44
2022-08-22T04:31:17.569Z,15.37
2022-08-22T04:33:51.550Z,15.36
2022-08-22T04:36:26.306Z,15.40
2022-08-22T04:39:00.533Z,15.38
2022-08-22T04:41:38.511Z,15.28
2022-08-22T04:44:13.453Z,15.48
2022-08-22T04:46:46.459Z,15.56
2022-08-22T04:49:24.445Z,15.54
2022-08-22T04:52:00.142Z,15.49
2022-08-22T04:54:42.307Z,15.59
2022-08-22T04:57:23.433Z,15.70
2022-08-22T04:59:51.534Z,15.79
2022-08-22T05:02:24.339Z,15.95
2022-08-22T05:04:59.081Z,16.18
2022-08-22T05:07:36.362Z,16.61
2022-08-22T05:10:12.328Z,17.09
2022-08-22T05:12:44.469Z,17.69
2022-08-22T05:15:23.143Z,18.34
2022-08-22T05:17:54.349Z,18.94
2022-08-22T05:20:26.880Z,19.58
2022-08-22T05:23:01.036Z,20.18
2022-08-22T05:25:32.707Z,20.77
2022-08-22T05:28:12.050Z,21.22
2022-08-22T05:30:40.853Z,21.99
2022-08-22T05:33:17.284Z,23.06
2022-08-22T05:35:50.849Z,24.35
2022-08-22T05:38:27.071Z,25.60
2022-08-22T05:41:00.383Z,26.50
2022-08-22T05:43:28.645Z,27.22
2022-08-22T05:45:58.476Z,27.99
2022-08-22T05:48:37.543Z,28.90
2022-08-22T05:51:16.589Z,29.91
2022-08-22T05:53:50.743Z,30.58
2022-08-22T05:56:27.308Z,31.13
2022-08-22T05:59:00.002Z,31.16
2022-08-22T06:01:32.952Z,31.41
2022-08-22T06:04:07.590Z,31.91
2022-08-22T06:06:41.062Z,32.13
2022-08-22T06:09:17.924Z,31.96
2022-08-22T06:11:51.679Z,31.92
2022-08-22T06:14:30.780Z,31.65
2022-08-22T06:17:07.089Z,31.01
2022-08-22T06:19:38.306Z,30.72
2022-08-22T06:22:06.673Z,30.44
2022-08-22T06:24:39.332Z,30.41
2022-08-22T06:27:13.049Z,30.35
2022-08-22T06:29:45.085Z,30.13
2022-08-22T06:32:15.258Z,30.52
2022-08-22T06:34:46.217Z,30.58
2022-08-22T06:37:22.769Z,30.34
2022-08-22T06:39:55.090Z,29.43
2022-08-22T06:42:28.172Z,27.61
2022-08-22T06:45:01.886Z,26.77
2022-08-22T06:47:33.678Z,26.25
2022-08-22T06:50:16.570Z,25.34
2022-08-22T06:52:53.437Z,24.41
2022-08-22T06:55:26.502Z,24.30
2022-08-22T06:57:57.221Z,24.13
2022-08-22T07:00:25.450Z,24.42
2022-08-22T07:02:58.449Z,24.48
2022-08-22T07:05:28.645Z,24.91
2022-08-22T07:07:57.074Z,25.05
2022-08-22T07:10:26.378Z,25.01
2022-08-22T07:12:57.546Z,24.64
2022-08-22T07:15:34.374Z,25.31
2022-08-22T07:18:08.499Z,25.17
2022-08-22T07:20:41.906Z,25.93
2022-08-22T07:23:11.636Z,26.28
2022-08-22T07:25:52.870Z,25.58
2022-08-22T07:28:37.117Z,26.29
2022-08-22T07:31:38.003Z,25.81
2022-08-22T07:34:31.150Z,25.21
2022-08-22T07:37:02.832Z,25.17
2022-08-22T07:39:36.050Z,25.54
2022-08-22T07:42:11.935Z,25.03
2022-08-22T07:44:58.141Z,25.16
2022-08-22T07:47:32.920Z,26.14
2022-08-22T07:50:07.127Z,25.72
2022-08-22T07:52:43.456Z,26.66
2022-08-22T07:55:17.635Z,26.99
2022-08-22T07:57:51.164Z,28.10
2022-08-22T08:00:21.532Z,28.48
2022-08-22T08:02:52.075Z,26.66
2022-08-22T08:05:23.919Z,27.12
2022-08-22T08:07:55.611Z,26.68
2022-08-22T08:10:27.482Z,27.16
2022-08-22T08:13:03.352Z,28.38
2022-08-22T08:15:34.328Z,29.00
2022-08-22T08:18:05.881Z,28.94
2022-08-22T08:20:36.011Z,28.94
2022-08-22T08:23:05.194Z,28.79
2022-08-22T08:25:49.128Z,28.23
2022-08-22T08:28:35.192Z,26.31
2022-08-22T08:31:21.083Z,27.81
2022-08-22T08:33:51.454Z,28.21
2022-08-22T08:36:31.244Z,28.77
2022-08-22T08:39:12.336Z,28.99
2022-08-22T08:42:05.941Z,28.89
2022-08-22T08:45:03.387Z,28.07
2022-08-22T08:47:44.476Z,29.04
2022-08-22T08:50:24.719Z,28.20
2022-08-22T08:53:26.363Z,28.98
2022-08-22T08:55:58.907Z,28.71
2022-08-22T08:58:38.841Z,28.17
2022-08-22T09:01:27.691Z,28.04
2022-08-22T09:04:27.238Z,27.50
2022-08-22T09:07:26.472Z,26.85
2022-08-22T09:10:13.586Z,25.30
2022-08-22T09:13:12.378Z,25.51
2022-08-22T09:15:58.413Z,25.21
2022-08-22T09:19:03.260Z,26.03
2022-08-22T09:21:50.590Z,27.73
2022-08-22T09:24:52.321Z,28.55
2022-08-22T09:27:31.878Z,27.74
2022-08-22T09:30:08.512Z,27.43
2022-08-22T09:32:46.843Z,28.00
2022-08-22T09:35:26.674Z,27.11
2022-08-22T09:38:36.906Z,26.95
2022-08-22T09:41:22.114Z,26.73
2022-08-22T09:44:02.845Z,27.04
2022-08-22T09:46:36.704Z,27.25
2022-08-22T09:49:10.343Z,26.36
2022-08-22T09:51:46.255Z,26.74
2022-08-22T09:54:31.691Z,26.34
2022-08-22T09:57:13.859Z,25.13
2022-08-22T09:59:52.732Z,24.75
2022-08-22T10:02:31.750Z,25.11
2022-08-22T10:05:12.321Z,24.36
2022-08-22T10:08:13.787Z,23.25
2022-08-22T10:10:54.766Z,25.03
2022-08-22T10:13:37.215Z,26.22
2022-08-22T10:16:20.378Z,26.62
2022-08-22T10:18:54.766Z,26.11
2022-08-22T10:21:35.298Z,27.43
2022-08-22T10:24:25.095Z,28.52
2022-08-22T10:26:57.329Z,29.84
2022-08-22T10:29:45.343Z,26.64
2022-08-22T10:32:27.380Z,25.48
2022-08-22T10:34:58.539Z,26.37
2022-08-22T10:37:33.080Z,27.66
2022-08-22T10:40:08.809Z,27.56
2022-08-22T10:42:40.036Z,26.86
2022-08-22T10:45:23.766Z,27.46
2022-08-22T10:48:42.344Z,28.25
2022-08-22T10:51:19.890Z,27.52
2022-08-22T10:54:00.026Z,25.90
2022-08-22T10:56:35.886Z,24.96
2022-08-22T10:59:13.878Z,26.27
2022-08-22T11:01:51.086Z,26.10
2022-08-22T11:04:33.415Z,26.52
2022-08-22T11:07:15.574Z,28.03
2022-08-22T11:09:44.458Z,27.87
2022-08-22T11:12:22.159Z,28.52
2022-08-22T11:15:07.860Z,28.11
2022-08-22T11:18:06.171Z,28.39
2022-08-22T11:20:51.507Z,27.69
2022-08-22T11:23:30.643Z,25.43
2022-08-22T11:26:06.848Z,26.06
2022-08-22T11:29:07.857Z,26.81
2022-08-22T11:31:51.585Z,27.03
2022-08-22T11:34:36.516Z,28.31
2022-08-22T11:37:11.521Z,26.53
2022-08-22T11:39:45.191Z,27.00
2022-08-22T11:42:21.977Z,27.03
2022-08-22T11:44:55.537Z,27.36
2022-08-22T11:47:30.000Z,26.42
2022-08-22T11:50:13.351Z,26.01
2022-08-22T11:53:07.662Z,26.18
2022-08-22T11:55:39.473Z,25.91
2022-08-22T11:58:20.900Z,25.99
2022-08-22T12:00:56.352Z,26.71
2022-08-22T12:03:44.178Z,26.89
2022-08-22T12:06:34.680Z,25.33
2022-08-22T12:09:20.297Z,24.45
2022-08-22T12:12:07.380Z,24.48
2022-08-22T12:14:43.064Z,24.88
2022-08-22T12:17:55.916Z,26.50
2022-08-22T12:20:55.599Z,28.36
2022-08-22T12:23:48.799Z,29.47
2022-08-22T12:26:28.991Z,31.09
2022-08-22T12:29:15.496Z,31.79
2022-08-22T12:32:13.572Z,32.20
2022-08-22T12:34:57.827Z,32.20
2022-08-22T12:37:35.646Z,30.43
2022-08-22T12:40:29.213Z,29.49
2022-08-22T12:43:15.758Z,30.10
2022-08-22T12:46:05.442Z,30.83
2022-08-22T12:48:52.045Z,30.63
2022-08-22T12:51:29.856Z,30.02
2022-08-22T12:54:17.903Z,28.97
2022-08-22T12:56:58.011Z,27.02
2022-08-22T12:59:30.528Z,28.08
2022-08-22T13:02:02.747Z,30.22
2022-08-22T13:04:34.251Z,29.79
2022-08-22T13:07:22.828Z,30.20
2022-08-22T13:09:53.460Z,29.50
2022-08-22T13:12:26.671Z,27.68
2022-08-22T13:15:00.181Z,28.17
2022-08-22T13:17:28.967Z,27.62
2022-08-22T13:20:02.947Z,28.54
2022-08-22T13:22:35.832Z,29.17
2022-08-22T13:25:09.547Z,28.92
2022-08-22T13:27:51.058Z,28.37
2022-08-22T13:30:22.263Z,28.95
2022-08-22T13:32:53.230Z,30.08
2022-08-22T13:35:25.606Z,30.03
2022-08-22T13:38:04.403Z,29.08
2022-08-22T13:40:33.852Z,28.56
2022-08-22T13:43:06.158Z,28.38
2022-08-22T13:45:36.319Z,27.41
2022-08-22T13:48:11.350Z,26.38
2022-08-22T13:50:57.133Z,26.33
2022-08-22T13:53:33.101Z,26.90
2022-08-22T13:56:07.138Z,26.94
2022-08-22T13:58:46.325Z,27.86
2022-08-22T14:01:41.736Z,27.52
2022-08-22T14:04:26.678Z,26.76
2022-08-22T14:07:23.907Z,26.46
2022-08-22T14:09:57.716Z,26.56
2022-08-22T14:12:32.350Z,26.57
2022-08-22T14:15:03.343Z,26.01
2022-08-22T14:17:37.496Z,26.19
2022-08-22T14:20:14.145Z,26.50
2022-08-22T14:23:04.710Z,26.09
2022-08-22T14:25:39.862Z,26.02
2022-08-22T14:28:09.743Z,25.35
2022-08-22T14:30:58.271Z,26.39
2022-08-22T14:33:33.168Z,27.22
2022-08-22T14:36:04.507Z,27.65
2022-08-22T14:38:38.496Z,26.85
2022-08-22T14:41:14.114Z,26.65
2022-08-22T14:43:52.484Z,25.56
2022-08-22T14:46:27.702Z,25.30
2022-08-22T14:49:28.809Z,25.20
2022-08-22T14:52:02.608Z,26.35
2022-08-22T14:54:31.475Z,26.65
2022-08-22T14:57:02.840Z,26.83
2022-08-22T14:59:40.827Z,26.53
2022-08-22T15:02:13.797Z,24.88
2022-08-22T15:04:43.994Z,25.48
2022-08-22T15:07:21.260Z,25.87
2022-08-22T15:09:53.379Z,26.39
2022-08-22T15:12:28.590Z,26.82
2022-08-22T15:14:59.207Z,27.17
2022-08-22T15:17:44.290Z,27.52
2022-08-22T15:20:28.478Z,28.10
2022-08-22T15:22:59.636Z,27.83
2022-08-22T15:25:31.894Z,28.12
2022-08-22T15:28:06.558Z,28.59
2022-08-22T15:30:38.233Z,28.55
2022-08-22T15:33:18.833Z,28.80
2022-08-22T15:35:48.127Z,28.33
2022-08-22T15:38:31.007Z,28.70
2022-08-22T15:41:38.920Z,28.94
2022-08-22T15:44:15.137Z,28.60
2022-08-22T15:47:03.720Z,28.60
2022-08-22T15:49:33.282Z,28.22
2022-08-22T15:52:21.706Z,28.06
2022-08-22T15:55:18.376Z,28.26
2022-08-22T15:58:06.081Z,28.23
2022-08-22T16:00:43.369Z,28.33
2022-08-22T16:03:14.696Z,28.33
2022-08-22T16:05:55.407Z,28.22
2022-08-22T16:08:33.029Z,27.81
2022-08-22T16:11:30.954Z,25.73
2022-08-22T16:14:21.562Z,24.93
2022-08-22T16:17:01.558Z,24.45
2022-08-22T16:19:30.147Z,23.86
2022-08-22T16:22:10.704Z,23.70
2022-08-22T16:25:05.408Z,23.99
2022-08-22T16:27:33.959Z,24.29
2022-08-22T16:30:15.399Z,24.79
2022-08-22T16:32:56.285Z,24.70
2022-08-22T16:36:01.560Z,25.32
2022-08-22T16:38:37.516Z,25.91
2022-08-22T16:41:05.449Z,26.27
2022-08-22T16:43:33.581Z,26.51
2022-08-22T16:46:02.279Z,26.36
2022-08-22T16:48:39.405Z,26.17
2022-08-22T16:51:12.925Z,26.40
2022-08-22T16:54:03.370Z,26.07
2022-08-22T16:56:37.988Z,25.80
2022-08-22T16:59:24.003Z,25.46
2022-08-22T17:02:14.904Z,24.91
2022-08-22T17:04:54.775Z,24.59
2022-08-22T17:07:33.004Z,24.71
2022-08-22T17:10:17.398Z,24.11
2022-08-22T17:12:58.728Z,23.93
2022-08-22T17:15:34.774Z,23.82
2022-08-22T17:18:44.127Z,23.74
2022-08-22T17:21:25.627Z,23.78
2022-08-22T17:24:01.450Z,23.92
2022-08-22T17:26:45.844Z,24.10
2022-08-22T17:29:19.561Z,24.32
2022-08-22T17:31:54.343Z,24.19
2022-08-22T17:34:33.470Z,24.33
2022-08-22T17:37:09.592Z,23.79
2022-08-22T17:40:03.024Z,23.63
2022-08-22T17:42:48.778Z,23.92
2022-08-22T17:45:27.551Z,24.03
2022-08-22T17:48:03.743Z,23.89
2022-08-22T17:50:35.772Z,23.41
2022-08-22T17:53:10.027Z,23.83
2022-08-22T17:55:53.126Z,23.94
2022-08-22T17:58:35.707Z,23.35
2022-08-22T18:01:15.562Z,22.83
2022-08-22T18:03:50.197Z,23.19
2022-08-22T18:06:22.230Z,23.24
2022-08-22T18:11:49.410Z,22.83
2022-08-22T18:14:28.317Z,23.28
2022-08-22T18:16:59.039Z,23.41
2022-08-22T18:19:40.830Z,23.38
2022-08-22T18:22:12.798Z,22.95
2022-08-22T18:24:52.114Z,22.94
2022-08-22T18:27:34.131Z,22.78
2022-08-22T18:30:15.051Z,22.84
2022-08-22T18:32:50.131Z,22.80
2022-08-22T18:35:25.163Z,22.81
2022-08-22T18:38:01.564Z,22.51
2022-08-22T18:40:46.895Z,22.26
2022-08-22T18:43:23.842Z,22.04
2022-08-22T18:46:03.359Z,22.11
2022-08-22T18:48:54.330Z,22.17
2022-08-22T18:51:30.805Z,22.31
2022-08-22T18:54:24.487Z,21.93
2022-08-22T18:56:59.952Z,21.49
2022-08-22T18:59:42.746Z,21.54
2022-08-22T19:02:28.172Z,21.32
2022-08-22T19:05:20.937Z,21.56
2022-08-22T19:08:03.436Z,21.63
2022-08-22T19:11:08.716Z,21.39
2022-08-22T19:13:51.167Z,21.41
2022-08-22T19:16:44.764Z,21.60
2022-08-22T19:19:17.513Z,21.40
2022-08-22T19:22:22.346Z,21.38
2022-08-22T19:25:13.948Z,21.17
2022-08-22T19:27:45.446Z,21.21
2022-08-22T19:30:43.656Z,21.30
2022-08-22T19:33:13.637Z,21.26
2022-08-22T19:36:06.218Z,21.27
2022-08-22T19:38:56.651Z,21.42
2022-08-22T19:41:43.986Z,21.54
2022-08-22T19:44:31.200Z,21.46
2022-08-22T19:47:08.125Z,21.54
2022-08-22T19:49:38.124Z,21.38
2022-08-22T19:52:20.770Z,21.59
2022-08-22T19:54:57.599Z,21.65
2022-08-22T19:57:35.797Z,21.67
2022-08-22T20:00:10.705Z,21.34
2022-08-22T20:02:56.434Z,21.20
2022-08-22T20:05:31.477Z,21.23
2022-08-22T20:08:17.462Z,21.25
2022-08-22T20:10:58.575Z,21.29
2022-08-22T20:13:29.140Z,21.24
2022-08-22T20:16:16.111Z,21.35
2022-08-22T20:19:06.545Z,21.03
2022-08-22T20:21:40.630Z,20.95
2022-08-22T20:24:12.121Z,20.59
2022-08-22T20:26:57.594Z,20.54
2022-08-22T20:29:32.468Z,20.38
2022-08-22T20:32:01.387Z,20.48
2022-08-22T20:34:37.386Z,20.52
2022-08-22T20:37:27.214Z,20.52
2022-08-22T20:40:00.499Z,20.41
2022-08-22T20:42:32.649Z,20.28
2022-08-22T20:45:02.208Z,20.22
2022-08-22T20:47:41.851Z,20.06
2022-08-22T20:50:13.472Z,20.10
2022-08-22T20:52:54.207Z,20.02
2022-08-22T20:55:25.962Z,19.93
2022-08-22T20:58:03.398Z,19.88
2022-08-22T21:00:34.135Z,19.64
2022-08-22T21:03:06.359Z,19.64
2022-08-22T21:05:38.958Z,19.66
2022-08-22T21:08:09.363Z,19.58
2022-08-22T21:11:05.866Z,19.50
2022-08-22T21:13:35.730Z,19.47
2022-08-22T21:16:13.915Z,19.41
2022-08-22T21:18:43.340Z,19.24
2022-08-22T21:21:20.486Z,19.25
2022-08-22T21:23:51.200Z,19.21
2022-08-22T21:26:25.314Z,19.19
2022-08-22T21:28:59.920Z,19.11
2022-08-22T21:31:31.106Z,19.08
2022-08-22T21:33:59.030Z,19.03
2022-08-22T21:36:31.131Z,18.99
2022-08-22T21:39:03.541Z,18.86
2022-08-22T21:41:37.904Z,18.93
2022-08-22T21:44:19.780Z,18.80
2022-08-22T21:46:47.328Z,18.72
2022-08-22T21:49:23.986Z,18.73
2022-08-22T21:51:52.900Z,18.60
2022-08-22T21:54:39.490Z,18.53
2022-08-22T21:57:35.315Z,18.36
2022-08-22T22:00:07.291Z,18.38
2022-08-22T22:02:39.709Z,18.26
2022-08-22T22:05:11.420Z,18.30
2022-08-22T22:07:42.650Z,18.32
2022-08-22T22:10:14.543Z,18.23
2022-08-22T22:12:43.612Z,18.16
2022-08-22T22:15:14.846Z,18.10
2022-08-22T22:17:42.324Z,18.13
2022-08-22T22:20:10.699Z,18.14
2022-08-22T22:22:46.245Z,18.14
2022-08-22T22:25:40.915Z,18.07
2022-08-22T22:28:06.080Z,17.95
2022-08-22T22:30:33.770Z,17.69
2022-08-22T22:33:01.266Z,17.55
2022-08-22T22:35:28.857Z,17.45
2022-08-22T22:37:57.920Z,17.39
2022-08-22T22:40:26.066Z,17.63
2022-08-22T22:42:53.631Z,17.66
2022-08-22T22:45:21.136Z,17.60
2022-08-22T22:47:48.674Z,17.56
2022-08-22T22:50:16.270Z,17.59
2022-08-22T22:52:43.851Z,17.60
2022-08-22T22:55:13.142Z,17.58
2022-08-22T22:57:58.962Z,17.45
2022-08-22T23:00:31.046Z,17.40
2022-08-22T23:02:59.647Z,17.40
2022-08-22T23:05:27.148Z,17.43
2022-08-22T23:07:54.665Z,17.39
2022-08-22T23:10:23.535Z,17.31
2022-08-22T23:12:51.015Z,17.13
2022-08-22T23:15:18.474Z,17.04
2022-08-22T23:17:45.991Z,17.12
2022-08-22T23:20:14.078Z,17.16
2022-08-22T23:22:42.850Z,17.11
2022-08-22T23:25:10.516Z,16.99
2022-08-22T23:27:39.715Z,16.95
2022-08-22T23:30:10.408Z,16.95
2022-08-22T23:32:38.710Z,16.79
2022-08-22T23:35:07.915Z,16.71
2022-08-22T23:37:35.463Z,16.58
2022-08-22T23:40:03.682Z,16.60
2022-08-22T23:42:31.218Z,16.68
2022-08-22T23:45:00.099Z,16.68
2022-08-22T23:47:27.595Z,16.46
2022-08-22T23:49:55.075Z,16.48
2022-08-22T23:52:22.560Z,16.43
2022-08-22T23:54:54.336Z,16.49
2022-08-22T23:57:26.406Z,16.38
2022-08-22T23:59:57.662Z,16.32
